sensor_id;sensor_type;location;lat;lon;timestamp;pressure;altitude;pressure_sealevel;temperature;humidity
64679;BME280;51094;53.864;27.676;2024-01-30T00:01:57;101115.72;;;-0.23;84.01
64679;BME280;51094;53.864;27.676;2024-01-30T00:04:24;101076.47;;;-0.39;84.22
64679;BME280;51094;53.864;27.676;2024-01-30T00:06:51;101155.00;;;0.08;83.93
64679;BME280;51094;53.864;27.676;2024-01-30T00:09:20;101148.19;;;0.13;83.27
64679;BME280;51094;53.864;27.676;2024-01-30T00:11:47;101107.28;;;-0.01;83.50
64679;BME280;51094;53.864;27.676;2024-01-30T00:14:19;101119.19;;;0.12;83.30
64679;BME280;51094;53.864;27.676;2024-01-30T00:16:46;101121.75;;;0.11;83.16
64679;BME280;51094;53.864;27.676;2024-01-30T00:19:13;101091.03;;;0.02;82.73
64679;BME280;51094;53.864;27.676;2024-01-30T00:21:40;101127.75;;;0.29;83.41
64679;BME280;51094;53.864;27.676;2024-01-30T00:24:08;101059.53;;;-0.07;83.46
64679;BME280;51094;53.864;27.676;2024-01-30T00:26:35;101107.28;;;0.16;83.07
64679;BME280;51094;53.864;27.676;2024-01-30T00:29:02;101106.41;;;0.15;83.08
64679;BME280;51094;53.864;27.676;2024-01-30T00:31:29;101126.03;;;0.21;83.40
64679;BME280;51094;53.864;27.676;2024-01-30T00:33:56;101115.81;;;0.24;83.74
64679;BME280;51094;53.864;27.676;2024-01-30T00:36:23;101044.16;;;-0.22;83.18
64679;BME280;51094;53.864;27.676;2024-01-30T00:38:50;101102.16;;;0.10;83.59
64679;BME280;51094;53.864;27.676;2024-01-30T00:41:17;101108.97;;;0.17;83.14
64679;BME280;51094;53.864;27.676;2024-01-30T00:43:46;101100.47;;;0.19;83.54
64679;BME280;51094;53.864;27.676;2024-01-30T00:46:13;101059.53;;;-0.05;83.18
64679;BME280;51094;53.864;27.676;2024-01-30T00:48:40;101097.88;;;0.07;83.28
64679;BME280;51094;53.864;27.676;2024-01-30T00:51:07;101056.09;;;0.02;83.69
64679;BME280;51094;53.864;27.676;2024-01-30T00:53:35;101100.44;;;0.06;83.33
64679;BME280;51094;53.864;27.676;2024-01-30T00:56:02;101081.69;;;0.14;83.51
64679;BME280;51094;53.864;27.676;2024-01-30T00:58:30;101076.56;;;0.17;83.53
64679;BME280;51094;53.864;27.676;2024-01-30T01:00:57;101084.25;;;0.17;83.50
64679;BME280;51094;53.864;27.676;2024-01-30T01:03:24;101085.09;;;0.13;83.41
64679;BME280;51094;53.864;27.676;2024-01-30T01:05:51;100994.69;;;-0.42;83.42
64679;BME280;51094;53.864;27.676;2024-01-30T01:08:18;101004.03;;;-0.58;83.69
64679;BME280;51094;53.864;27.676;2024-01-30T01:10:45;101005.75;;;-0.42;83.41
64679;BME280;51094;53.864;27.676;2024-01-30T01:13:12;101014.28;;;-0.40;83.77
64679;BME280;51094;53.864;27.676;2024-01-30T01:15:40;101085.09;;;0.04;83.74
64679;BME280;51094;53.864;27.676;2024-01-30T01:18:07;101070.59;;;0.06;83.64
64679;BME280;51094;53.864;27.676;2024-01-30T01:20:34;101076.56;;;-0.07;83.76
64679;BME280;51094;53.864;27.676;2024-01-30T01:23:04;101004.06;;;-0.49;84.36
64679;BME280;51094;53.864;27.676;2024-01-30T01:25:39;101004.91;;;-0.48;83.82
64679;BME280;51094;53.864;27.676;2024-01-30T01:28:06;100952.91;;;-0.70;84.25
64679;BME280;51094;53.864;27.676;2024-01-30T01:30:32;101053.53;;;0.00;84.27
64679;BME280;51094;53.864;27.676;2024-01-30T01:33:00;101008.34;;;-0.28;83.46
64679;BME280;51094;53.864;27.676;2024-01-30T01:35:29;101022.84;;;-0.13;83.81
64679;BME280;51094;53.864;27.676;2024-01-30T01:37:56;101020.28;;;-0.16;83.26
64679;BME280;51094;53.864;27.676;2024-01-30T01:40:25;101051.00;;;-0.01;83.23
64679;BME280;51094;53.864;27.676;2024-01-30T01:42:54;100954.66;;;-0.55;83.70
64679;BME280;51094;53.864;27.676;2024-01-30T01:45:24;101045.88;;;-0.06;83.31
64679;BME280;51094;53.864;27.676;2024-01-30T01:47:52;100974.25;;;-0.50;83.93
64679;BME280;51094;53.864;27.676;2024-01-30T01:50:22;101031.34;;;-0.29;83.60
64679;BME280;51094;53.864;27.676;2024-01-30T01:52:50;101044.16;;;-0.14;83.97
64679;BME280;51094;53.864;27.676;2024-01-30T01:55:21;101038.19;;;-0.19;83.53
64679;BME280;51094;53.864;27.676;2024-01-30T01:57:49;101021.09;;;-0.34;84.28
64679;BME280;51094;53.864;27.676;2024-01-30T02:00:16;101009.19;;;-0.34;84.30
64679;BME280;51094;53.864;27.676;2024-01-30T02:02:49;101031.34;;;-0.29;84.25
64679;BME280;51094;53.864;27.676;2024-01-30T02:05:16;101030.50;;;-0.24;84.38
64679;BME280;51094;53.864;27.676;2024-01-30T02:07:43;100944.38;;;-0.72;84.13
64679;BME280;51094;53.864;27.676;2024-01-30T02:10:11;101020.25;;;-0.33;84.29
64679;BME280;51094;53.864;27.676;2024-01-30T02:12:38;101007.47;;;-0.39;84.17
64679;BME280;51094;53.864;27.676;2024-01-30T02:15:05;101024.50;;;-0.53;84.35
64679;BME280;51094;53.864;27.676;2024-01-30T02:17:37;101008.34;;;-0.45;84.67
64679;BME280;51094;53.864;27.676;2024-01-30T02:20:12;100978.44;;;-0.70;85.03
64679;BME280;51094;53.864;27.676;2024-01-30T02:22:48;100985.28;;;-0.68;85.09
64679;BME280;51094;53.864;27.676;2024-01-30T02:25:16;100997.22;;;-0.63;85.56
64679;BME280;51094;53.864;27.676;2024-01-30T02:27:43;100998.91;;;-0.64;85.66
64679;BME280;51094;53.864;27.676;2024-01-30T02:30:10;100993.81;;;-0.61;85.74
64679;BME280;51094;53.864;27.676;2024-01-30T02:32:37;101000.66;;;-0.52;86.01
64679;BME280;51094;53.864;27.676;2024-01-30T02:35:05;101016.81;;;-0.55;85.69
64679;BME280;51094;53.864;27.676;2024-01-30T02:37:32;100992.97;;;-0.54;86.16
64679;BME280;51094;53.864;27.676;2024-01-30T02:39:58;100992.09;;;-0.62;85.86
64679;BME280;51094;53.864;27.676;2024-01-30T02:42:26;100975.91;;;-0.69;85.53
64679;BME280;51094;53.864;27.676;2024-01-30T02:44:52;100995.53;;;-0.51;85.59
64679;BME280;51094;53.864;27.676;2024-01-30T02:47:19;100992.97;;;-0.60;85.40
64679;BME280;51094;53.864;27.676;2024-01-30T02:49:47;101004.03;;;-0.64;85.69
64679;BME280;51094;53.864;27.676;2024-01-30T02:52:14;100967.34;;;-0.95;85.96
64679;BME280;51094;53.864;27.676;2024-01-30T02:54:41;100918.72;;;-1.19;85.85
64679;BME280;51094;53.864;27.676;2024-01-30T02:57:08;100945.13;;;-1.11;85.87
64679;BME280;51094;53.864;27.676;2024-01-30T02:59:35;100976.72;;;-0.80;86.07
64679;BME280;51094;53.864;27.676;2024-01-30T03:02:02;100979.31;;;-0.67;86.41
64679;BME280;51094;53.864;27.676;2024-01-30T03:04:29;100966.50;;;-0.80;86.09
64679;BME280;51094;53.864;27.676;2024-01-30T03:07:00;100983.56;;;-0.65;85.62
64679;BME280;51094;53.864;27.676;2024-01-30T03:09:27;100984.44;;;-0.67;85.68
64679;BME280;51094;53.864;27.676;2024-01-30T03:11:54;100986.94;;;-0.82;85.88
64679;BME280;51094;53.864;27.676;2024-01-30T03:14:21;100997.13;;;-0.85;86.44
64679;BME280;51094;53.864;27.676;2024-01-30T03:16:47;100982.66;;;-0.86;86.88
64679;BME280;51094;53.864;27.676;2024-01-30T03:19:15;100919.53;;;-1.29;86.61
64679;BME280;51094;53.864;27.676;2024-01-30T03:21:45;100985.22;;;-0.89;86.61
64679;BME280;51094;53.864;27.676;2024-01-30T03:24:12;100970.72;;;-0.96;87.02
64679;BME280;51094;53.864;27.676;2024-01-30T03:26:41;100982.66;;;-0.86;86.50
64679;BME280;51094;53.864;27.676;2024-01-30T03:29:08;100985.22;;;-0.86;86.59
64679;BME280;51094;53.864;27.676;2024-01-30T03:31:35;101024.38;;;-0.84;86.87
64679;BME280;51094;53.864;27.676;2024-01-30T03:34:02;100893.13;;;-1.42;86.50
64679;BME280;51094;53.864;27.676;2024-01-30T03:36:29;100905.94;;;-1.35;86.45
64679;BME280;51094;53.864;27.676;2024-01-30T03:38:59;100972.44;;;-0.86;87.05
64679;BME280;51094;53.864;27.676;2024-01-30T03:41:26;100970.72;;;-0.99;86.60
64679;BME280;51094;53.864;27.676;2024-01-30T03:43:53;100901.69;;;-1.32;86.80
64679;BME280;51094;53.864;27.676;2024-01-30T03:46:20;100955.38;;;-1.04;86.95
64679;BME280;51094;53.864;27.676;2024-01-30T03:48:47;100950.22;;;-1.17;87.23
64679;BME280;51094;53.864;27.676;2024-01-30T03:51:14;100829.97;;;-1.99;87.28
64679;BME280;51094;53.864;27.676;2024-01-30T03:53:43;100980.91;;;-1.02;87.53
64679;BME280;51094;53.864;27.676;2024-01-30T03:56:10;100709.06;;;-2.53;87.39
64679;BME280;51094;53.864;27.676;2024-01-30T03:58:39;100965.63;;;-0.99;87.62
64679;BME280;51094;53.864;27.676;2024-01-30T04:01:05;100906.75;;;-1.39;87.30
64679;BME280;51094;53.864;27.676;2024-01-30T04:03:33;100960.50;;;-1.02;87.27
64679;BME280;51094;53.864;27.676;2024-01-30T04:06:00;100858.97;;;-1.78;87.22
64679;BME280;51094;53.864;27.676;2024-01-30T04:08:27;100957.88;;;-1.14;87.33
64679;BME280;51094;53.864;27.676;2024-01-30T04:10:54;100945.09;;;-1.20;87.66
64679;BME280;51094;53.864;27.676;2024-01-30T04:13:21;100895.66;;;-1.50;87.64
64679;BME280;51094;53.864;27.676;2024-01-30T04:15:48;100946.00;;;-1.11;88.09
64679;BME280;51094;53.864;27.676;2024-01-30T04:18:15;100942.59;;;-1.08;87.79
64679;BME280;51094;53.864;27.676;2024-01-30T04:20:45;100944.28;;;-1.10;87.88
64679;BME280;51094;53.864;27.676;2024-01-30T04:23:11;100898.25;;;-1.28;87.56
64679;BME280;51094;53.864;27.676;2024-01-30T04:25:38;100911.91;;;-1.19;87.27
64679;BME280;51094;53.864;27.676;2024-01-30T04:28:05;100883.78;;;-1.39;87.14
64679;BME280;51094;53.864;27.676;2024-01-30T04:30:32;100864.16;;;-1.53;87.52
64679;BME280;51094;53.864;27.676;2024-01-30T04:32:59;100913.63;;;-1.19;87.28
64679;BME280;51094;53.864;27.676;2024-01-30T04:35:26;100920.38;;;-1.35;87.28
64679;BME280;51094;53.864;27.676;2024-01-30T04:37:53;100928.09;;;-1.14;87.14
64679;BME280;51094;53.864;27.676;2024-01-30T04:40:21;100912.75;;;-1.30;87.17
64679;BME280;51094;53.864;27.676;2024-01-30T04:42:48;100897.44;;;-1.33;87.33
64679;BME280;51094;53.864;27.676;2024-01-30T04:45:15;100935.78;;;-1.08;87.83
64679;BME280;51094;53.864;27.676;2024-01-30T04:47:42;100899.16;;;-1.17;87.43
64679;BME280;51094;53.864;27.676;2024-01-30T04:50:11;100810.50;;;-1.79;86.73
64679;BME280;51094;53.864;27.676;2024-01-30T04:52:38;100886.28;;;-1.49;86.49
64679;BME280;51094;53.864;27.676;2024-01-30T04:55:05;100762.78;;;-2.17;86.62
64679;BME280;51094;53.864;27.676;2024-01-30T04:57:40;100862.41;;;-1.63;86.52
64679;BME280;51094;53.864;27.676;2024-01-30T05:00:08;100934.00;;;-1.25;86.54
64679;BME280;51094;53.864;27.676;2024-01-30T05:02:35;100923.78;;;-1.27;86.87
64679;BME280;51094;53.864;27.676;2024-01-30T05:05:04;100829.13;;;-1.94;87.26
64679;BME280;51094;53.864;27.676;2024-01-30T05:07:33;100889.66;;;-1.55;87.27
64679;BME280;51094;53.864;27.676;2024-01-30T05:10:03;100873.44;;;-1.72;87.29
64679;BME280;51094;53.864;27.676;2024-01-30T05:12:32;100902.44;;;-1.52;87.34
64679;BME280;51094;53.864;27.676;2024-01-30T05:14:59;100914.34;;;-1.54;87.32
64679;BME280;51094;53.864;27.676;2024-01-30T05:17:29;100904.97;;;-1.56;87.49
64679;BME280;51094;53.864;27.676;2024-01-30T05:19:56;100898.97;;;-1.63;87.67
64679;BME280;51094;53.864;27.676;2024-01-30T05:22:23;100891.34;;;-1.58;87.89
64679;BME280;51094;53.864;27.676;2024-01-30T05:24:50;100932.28;;;-1.39;87.59
64679;BME280;51094;53.864;27.676;2024-01-30T05:27:17;100916.06;;;-1.50;87.51
64679;BME280;51094;53.864;27.676;2024-01-30T05:29:44;100880.22;;;-1.73;87.20
64679;BME280;51094;53.864;27.676;2024-01-30T05:32:13;100912.56;;;-1.67;87.29
64679;BME280;51094;53.864;27.676;2024-01-30T05:34:40;100821.38;;;-2.20;87.76
64679;BME280;51094;53.864;27.676;2024-01-30T05:37:11;100824.75;;;-2.21;87.87
64679;BME280;51094;53.864;27.676;2024-01-30T05:39:41;100928.75;;;-1.59;88.05
64679;BME280;51094;53.864;27.676;2024-01-30T05:42:08;100893.81;;;-1.78;88.29
64679;BME280;51094;53.864;27.676;2024-01-30T05:44:35;100924.50;;;-1.60;87.97
64679;BME280;51094;53.864;27.676;2024-01-30T05:47:02;100827.28;;;-2.22;87.49
64679;BME280;51094;53.864;27.676;2024-01-30T05:49:32;100924.50;;;-1.63;88.31
64679;BME280;51094;53.864;27.676;2024-01-30T05:52:01;100856.22;;;-2.13;87.63
64679;BME280;51094;53.864;27.676;2024-01-30T05:54:29;100902.31;;;-1.81;87.99
64679;BME280;51094;53.864;27.676;2024-01-30T05:56:59;100930.44;;;-1.64;88.22
64679;BME280;51094;53.864;27.676;2024-01-30T05:59:26;100730.97;;;-2.80;88.04
64679;BME280;51094;53.864;27.676;2024-01-30T06:01:53;100893.75;;;-1.87;88.26
64679;BME280;51094;53.864;27.676;2024-01-30T06:04:30;100910.84;;;-1.71;88.39
64679;BME280;51094;53.864;27.676;2024-01-30T06:06:59;100920.25;;;-1.62;88.35
64679;BME280;51094;53.864;27.676;2024-01-30T06:09:29;100909.16;;;-1.69;87.64
64679;BME280;51094;53.864;27.676;2024-01-30T06:11:55;100859.69;;;-2.02;88.03
64679;BME280;51094;53.864;27.676;2024-01-30T06:14:22;100904.91;;;-1.67;88.47
64679;BME280;51094;53.864;27.676;2024-01-30T06:16:50;100848.63;;;-2.02;87.92
64679;BME280;51094;53.864;27.676;2024-01-30T06:19:17;100914.25;;;-1.71;88.46
64679;BME280;51094;53.864;27.676;2024-01-30T06:21:46;100886.13;;;-1.87;88.17
64679;BME280;51094;53.864;27.676;2024-01-30T06:24:13;100917.66;;;-1.67;88.10
64679;BME280;51094;53.864;27.676;2024-01-30T06:26:40;100910.81;;;-1.79;87.76
64679;BME280;51094;53.864;27.676;2024-01-30T06:29:07;100909.16;;;-1.75;88.41
64679;BME280;51094;53.864;27.676;2024-01-30T06:31:41;100887.78;;;-1.91;88.27
64679;BME280;51094;53.864;27.676;2024-01-30T06:34:13;100906.56;;;-1.78;88.24
64679;BME280;51094;53.864;27.676;2024-01-30T06:36:41;100911.69;;;-1.75;88.44
64679;BME280;51094;53.864;27.676;2024-01-30T06:39:08;100917.63;;;-1.76;88.17
64679;BME280;51094;53.864;27.676;2024-01-30T06:41:35;100888.69;;;-1.84;88.51
64679;BME280;51094;53.864;27.676;2024-01-30T06:44:03;100898.06;;;-1.73;88.59
64679;BME280;51094;53.864;27.676;2024-01-30T06:46:31;100894.69;;;-1.69;88.77
64679;BME280;51094;53.864;27.676;2024-01-30T06:49:03;100894.72;;;-1.62;88.23
64679;BME280;51094;53.864;27.676;2024-01-30T06:51:31;100895.56;;;-1.63;87.82
64679;BME280;51094;53.864;27.676;2024-01-30T06:54:03;100875.16;;;-1.74;87.84
64679;BME280;51094;53.864;27.676;2024-01-30T06:56:30;100883.66;;;-1.66;87.57
64679;BME280;51094;53.864;27.676;2024-01-30T06:58:57;100808.66;;;-2.08;87.36
64679;BME280;51094;53.864;27.676;2024-01-30T07:01:29;100880.28;;;-1.59;87.75
64679;BME280;51094;53.864;27.676;2024-01-30T07:03:59;100670.72;;;-2.81;87.49
64679;BME280;51094;53.864;27.676;2024-01-30T07:06:26;100847.94;;;-1.75;87.53
64679;BME280;51094;53.864;27.676;2024-01-30T07:08:53;100871.81;;;-1.58;86.91
64679;BME280;51094;53.864;27.676;2024-01-30T07:11:21;100786.56;;;-2.09;86.80
64679;BME280;51094;53.864;27.676;2024-01-30T07:13:50;100882.88;;;-1.56;87.26
64679;BME280;51094;53.864;27.676;2024-01-30T07:16:18;100796.84;;;-1.96;86.99
64679;BME280;51094;53.864;27.676;2024-01-30T07:18:45;100864.97;;;-1.63;86.16
64679;BME280;51094;53.864;27.676;2024-01-30T07:21:12;100863.31;;;-1.57;86.94
64679;BME280;51094;53.864;27.676;2024-01-30T07:23:42;100845.44;;;-1.55;87.07
64679;BME280;51094;53.864;27.676;2024-01-30T07:26:09;100859.13;;;-1.41;86.08
64679;BME280;51094;53.864;27.676;2024-01-30T07:28:36;100834.34;;;-1.65;85.58
64679;BME280;51094;53.864;27.676;2024-01-30T07:31:03;100653.84;;;-2.59;85.84
64679;BME280;51094;53.864;27.676;2024-01-30T07:33:30;100822.47;;;-1.60;85.36
64679;BME280;51094;53.864;27.676;2024-01-30T07:35:57;100854.03;;;-1.33;85.43
64679;BME280;51094;53.864;27.676;2024-01-30T07:38:24;100830.19;;;-1.46;85.04
64679;BME280;51094;53.864;27.676;2024-01-30T07:40:53;100830.19;;;-1.40;85.40
64679;BME280;51094;53.864;27.676;2024-01-30T07:43:22;100856.59;;;-1.23;84.59
64679;BME280;51094;53.864;27.676;2024-01-30T07:45:52;100847.28;;;-1.12;85.07
64679;BME280;51094;53.864;27.676;2024-01-30T07:48:19;100849.00;;;-1.08;84.30
64679;BME280;51094;53.864;27.676;2024-01-30T07:50:46;100688.91;;;-1.95;83.82
64679;BME280;51094;53.864;27.676;2024-01-30T07:53:12;100735.72;;;-1.72;83.36
64679;BME280;51094;53.864;27.676;2024-01-30T07:55:40;100700.81;;;-1.99;83.04
64679;BME280;51094;53.864;27.676;2024-01-30T07:58:09;100838.78;;;-1.03;83.46
64679;BME280;51094;53.864;27.676;2024-01-30T08:00:39;100835.41;;;-0.94;83.60
64679;BME280;51094;53.864;27.676;2024-01-30T08:03:06;100843.91;;;-0.82;82.82
64679;BME280;51094;53.864;27.676;2024-01-30T08:05:33;100841.34;;;-0.76;82.78
64679;BME280;51094;53.864;27.676;2024-01-30T08:08:00;100842.19;;;-0.78;82.08
64679;BME280;51094;53.864;27.676;2024-01-30T08:10:27;100844.75;;;-0.77;81.89
64679;BME280;51094;53.864;27.676;2024-01-30T08:12:54;100838.81;;;-0.67;82.12
64679;BME280;51094;53.864;27.676;2024-01-30T08:15:22;100723.88;;;-1.49;81.28
64679;BME280;51094;53.864;27.676;2024-01-30T08:17:49;100782.63;;;-1.02;81.16
64679;BME280;51094;53.864;27.676;2024-01-30T08:20:16;100826.03;;;-0.73;81.55
64679;BME280;51094;53.864;27.676;2024-01-30T08:22:44;100830.28;;;-0.56;81.30
64679;BME280;51094;53.864;27.676;2024-01-30T08:25:11;100793.66;;;-0.80;79.74
64679;BME280;51094;53.864;27.676;2024-01-30T08:27:41;100696.66;;;-1.25;80.47
64679;BME280;51094;53.864;27.676;2024-01-30T08:30:10;100840.47;;;-0.30;80.67
64679;BME280;51094;53.864;27.676;2024-01-30T08:32:37;100811.50;;;-0.34;80.10
64679;BME280;51094;53.864;27.676;2024-01-30T08:35:04;100780.91;;;-0.49;79.36
64679;BME280;51094;53.864;27.676;2024-01-30T08:37:32;100831.94;;;-0.17;78.85
64679;BME280;51094;53.864;27.676;2024-01-30T08:40:00;100828.53;;;-0.13;78.39
64679;BME280;51094;53.864;27.676;2024-01-30T08:42:31;100817.38;;;0.02;79.05
64679;BME280;51094;53.864;27.676;2024-01-30T08:45:06;100818.22;;;0.13;77.86
64679;BME280;51094;53.864;27.676;2024-01-30T08:47:37;100789.19;;;0.26;77.46
64679;BME280;51094;53.864;27.676;2024-01-30T08:50:07;100819.00;;;0.33;75.63
64679;BME280;51094;53.864;27.676;2024-01-30T08:52:39;100760.22;;;0.12;76.54
64679;BME280;51094;53.864;27.676;2024-01-30T08:55:06;100766.16;;;0.26;75.69
64679;BME280;51094;53.864;27.676;2024-01-30T08:57:33;100764.44;;;0.29;76.68
64679;BME280;51094;53.864;27.676;2024-01-30T09:00:07;100727.13;;;-0.14;74.87
64679;BME280;51094;53.864;27.676;2024-01-30T09:02:35;100748.41;;;-0.12;75.34
64679;BME280;51094;53.864;27.676;2024-01-30T09:05:03;100820.75;;;0.20;75.71
64679;BME280;51094;53.864;27.676;2024-01-30T09:07:30;100797.75;;;0.10;76.39
64679;BME280;51094;53.864;27.676;2024-01-30T09:10:00;100779.94;;;-0.07;76.37
64679;BME280;51094;53.864;27.676;2024-01-30T09:12:27;100657.44;;;-0.71;76.12
64679;BME280;51094;53.864;27.676;2024-01-30T09:14:54;100790.97;;;0.03;75.95
64679;BME280;51094;53.864;27.676;2024-01-30T09:17:21;100768.91;;;-0.26;76.50
64679;BME280;51094;53.864;27.676;2024-01-30T09:19:48;100661.75;;;-0.90;77.11
64679;BME280;51094;53.864;27.676;2024-01-30T09:22:20;100810.56;;;0.00;77.46
64679;BME280;51094;53.864;27.676;2024-01-30T09:24:52;100775.59;;;0.07;77.33
64679;BME280;51094;53.864;27.676;2024-01-30T09:27:21;100765.38;;;0.03;75.70
64679;BME280;51094;53.864;27.676;2024-01-30T09:29:48;100784.03;;;0.30;75.64
64679;BME280;51094;53.864;27.676;2024-01-30T09:32:16;100796.00;;;0.24;75.54
64679;BME280;51094;53.864;27.676;2024-01-30T09:34:44;100703.28;;;-0.27;75.93
64679;BME280;51094;53.864;27.676;2024-01-30T09:37:11;100797.72;;;0.23;76.33
64679;BME280;51094;53.864;27.676;2024-01-30T09:39:38;100809.69;;;0.09;76.05
64679;BME280;51094;53.864;27.676;2024-01-30T09:42:56;100835.34;;;-0.06;76.37
64679;BME280;51094;53.864;27.676;2024-01-30T09:44:58;100798.69;;;-0.16;76.64
64679;BME280;51094;53.864;27.676;2024-01-30T09:47:26;100763.84;;;-0.46;77.45
64679;BME280;51094;53.864;27.676;2024-01-30T09:49:53;100798.72;;;-0.25;77.74
64679;BME280;51094;53.864;27.676;2024-01-30T09:52:22;100752.72;;;-0.37;77.49
64679;BME280;51094;53.864;27.676;2024-01-30T09:54:51;100813.19;;;-0.19;77.44
64679;BME280;51094;53.864;27.676;2024-01-30T09:57:19;100784.22;;;-0.15;77.67
64679;BME280;51094;53.864;27.676;2024-01-30T09:59:46;100713.63;;;-0.57;78.04
64679;BME280;51094;53.864;27.676;2024-01-30T10:02:13;100760.38;;;-0.20;77.86
64679;BME280;51094;53.864;27.676;2024-01-30T10:04:40;100752.59;;;0.06;77.28
64679;BME280;51094;53.864;27.676;2024-01-30T10:07:08;100801.00;;;0.44;76.47
64679;BME280;51094;53.864;27.676;2024-01-30T10:09:37;100776.63;;;1.18;75.92
64679;BME280;51094;53.864;27.676;2024-01-30T10:12:09;100709.16;;;1.17;73.65
64679;BME280;51094;53.864;27.676;2024-01-30T10:14:40;100791.41;;;1.79;72.94
64679;BME280;51094;53.864;27.676;2024-01-30T10:17:13;100729.25;;;1.60;70.90
64679;BME280;51094;53.864;27.676;2024-01-30T10:19:54;100769.84;;;1.98;71.21
64679;BME280;51094;53.864;27.676;2024-01-30T10:22:28;100747.34;;;2.17;71.16
64679;BME280;51094;53.864;27.676;2024-01-30T10:25:07;100739.53;;;2.26;68.67
64679;BME280;51094;53.864;27.676;2024-01-30T10:27:34;100754.00;;;2.33;68.05
64679;BME280;51094;53.864;27.676;2024-01-30T10:30:01;100752.13;;;2.46;68.33
64679;BME280;51094;53.864;27.676;2024-01-30T10:32:31;100718.00;;;2.36;67.09
64679;BME280;51094;53.864;27.676;2024-01-30T10:35:03;100739.09;;;2.59;66.80
64679;BME280;51094;53.864;27.676;2024-01-30T10:37:33;100714.97;;;2.68;66.83
64679;BME280;51094;53.864;27.676;2024-01-30T10:40:04;100735.94;;;2.96;66.24
64679;BME280;51094;53.864;27.676;2024-01-30T10:42:36;100697.84;;;2.67;66.34
64679;BME280;51094;53.864;27.676;2024-01-30T10:45:08;100743.69;;;2.94;65.83
64679;BME280;51094;53.864;27.676;2024-01-30T10:47:59;100748.06;;;2.88;65.69
64679;BME280;51094;53.864;27.676;2024-01-30T10:50:27;100720.47;;;2.99;65.76
64679;BME280;51094;53.864;27.676;2024-01-30T10:52:57;100728.53;;;3.28;64.67
64679;BME280;51094;53.864;27.676;2024-01-30T10:55:26;100681.72;;;3.10;63.40
64679;BME280;51094;53.864;27.676;2024-01-30T10:57:57;100710.84;;;3.58;63.78
64679;BME280;51094;53.864;27.676;2024-01-30T11:00:28;100729.31;;;3.78;62.23
64679;BME280;51094;53.864;27.676;2024-01-30T11:02:55;100717.56;;;4.07;61.78
64679;BME280;51094;53.864;27.676;2024-01-30T11:05:25;100709.47;;;4.25;60.85
64679;BME280;51094;53.864;27.676;2024-01-30T11:08:15;100724.84;;;4.66;61.36
64679;BME280;51094;53.864;27.676;2024-01-30T11:10:55;100729.22;;;4.98;60.17
64679;BME280;51094;53.864;27.676;2024-01-30T11:13:29;100673.03;;;5.11;58.63
64679;BME280;51094;53.864;27.676;2024-01-30T11:16:02;100712.41;;;5.50;60.30
64679;BME280;51094;53.864;27.676;2024-01-30T11:18:30;100692.41;;;5.89;58.67
64679;BME280;51094;53.864;27.676;2024-01-30T11:20:59;100679.34;;;5.95;56.89
64679;BME280;51094;53.864;27.676;2024-01-30T11:23:28;100611.03;;;5.47;55.02
64679;BME280;51094;53.864;27.676;2024-01-30T11:25:56;100669.09;;;5.61;55.72
64679;BME280;51094;53.864;27.676;2024-01-30T11:28:24;100684.91;;;5.49;54.93
64679;BME280;51094;53.864;27.676;2024-01-30T11:30:51;100702.94;;;5.51;56.52
64679;BME280;51094;53.864;27.676;2024-01-30T11:33:30;100699.94;;;5.33;56.82
64679;BME280;51094;53.864;27.676;2024-01-30T11:36:03;100697.78;;;5.51;56.50
64679;BME280;51094;53.864;27.676;2024-01-30T11:38:36;100692.47;;;5.57;55.65
64679;BME280;51094;53.864;27.676;2024-01-30T11:41:04;100688.16;;;5.57;55.17
64679;BME280;51094;53.864;27.676;2024-01-30T11:43:31;100652.78;;;5.61;55.75
64679;BME280;51094;53.864;27.676;2024-01-30T11:46:00;100642.16;;;5.41;54.43
64679;BME280;51094;53.864;27.676;2024-01-30T11:48:29;100647.16;;;5.47;55.98
64679;BME280;51094;53.864;27.676;2024-01-30T11:50:58;100680.00;;;6.02;54.04
64679;BME280;51094;53.864;27.676;2024-01-30T11:53:25;100665.81;;;5.56;54.26
64679;BME280;51094;53.864;27.676;2024-01-30T11:55:52;100613.94;;;5.34;54.96
64679;BME280;51094;53.864;27.676;2024-01-30T11:58:24;100669.09;;;5.92;55.68
64679;BME280;51094;53.864;27.676;2024-01-30T12:00:58;100683.81;;;6.18;53.33
64679;BME280;51094;53.864;27.676;2024-01-30T12:03:25;100659.50;;;6.25;54.02
64679;BME280;51094;53.864;27.676;2024-01-30T12:05:56;100684.28;;;6.31;52.89
64679;BME280;51094;53.864;27.676;2024-01-30T12:08:24;100660.41;;;5.64;53.19
64679;BME280;51094;53.864;27.676;2024-01-30T12:10:57;100660.03;;;5.47;55.16
64679;BME280;51094;53.864;27.676;2024-01-30T12:13:34;100667.13;;;5.69;54.04
64679;BME280;51094;53.864;27.676;2024-01-30T12:16:02;100651.56;;;5.73;54.26
64679;BME280;51094;53.864;27.676;2024-01-30T12:18:30;100672.22;;;6.04;53.67
64679;BME280;51094;53.864;27.676;2024-01-30T12:21:00;100457.53;;;4.75;54.55
64679;BME280;51094;53.864;27.676;2024-01-30T12:23:28;100659.09;;;5.80;53.24
64679;BME280;51094;53.864;27.676;2024-01-30T12:25:55;100649.03;;;5.71;54.52
64679;BME280;51094;53.864;27.676;2024-01-30T12:28:22;100650.50;;;6.09;53.75
64679;BME280;51094;53.864;27.676;2024-01-30T12:30:49;100656.59;;;6.07;53.79
64679;BME280;51094;53.864;27.676;2024-01-30T12:33:18;100651.66;;;6.00;53.31
64679;BME280;51094;53.864;27.676;2024-01-30T12:35:46;100651.13;;;5.89;53.31
64679;BME280;51094;53.864;27.676;2024-01-30T12:38:28;100626.97;;;5.61;54.04
64679;BME280;51094;53.864;27.676;2024-01-30T12:40:57;100485.94;;;5.03;54.01
64679;BME280;51094;53.864;27.676;2024-01-30T12:43:25;100644.63;;;5.75;54.01
64679;BME280;51094;53.864;27.676;2024-01-30T12:46:04;100625.25;;;6.19;53.72
64679;BME280;51094;53.864;27.676;2024-01-30T12:48:31;100633.94;;;6.95;51.54
64679;BME280;51094;53.864;27.676;2024-01-30T12:50:58;100635.00;;;7.15;50.32